windsock image

Welcome to Bigfield Strip.

anemometer image
     

 Help for dials.  
 
Local Met:

Wind:   
10 Min average:  
350 ° / 0.0 kts (0.0)
358° / 0.4

Temperature:  
11.1°C C
Dew Point:  
10.1°C C
QNH:  
Trend:  
1020.0 mb mb
-0.1mb/hr
BigField Strip. This image updates approximately every minute, it can have a two minute delay.  
 

Humidity:  
94 %
Sunrise:   03:51z
Sunset:   20:12z
Updated:  
  UTC
 
   More met info, trends, radar, history etc. available here   

LUTON Metar   EGGW 312320Z AUTO 36015KT 3100 BR OVC003 11/11 Q1019
 
  TAF   2016/05/31 22:07 TAF AMD EGGW 312200Z 3122/0118 01015G25KT 4000 BR OVC001 BECMG 3122/3124 35017KT 0200 FG PROB40 TEMPO 0100/0109 0800 DZ OVC002 BECMG 0109/0112 5000 BR OVC003 PROB40 TEMPO 0109/0118 1400 DZ
 
BENSON Metar   EGUB 312250Z 34009KT 9999 -DZ OVC007 11/11 Q1020 GRN TEMPO 7000 RADZ SCT006 YLO1
 
  TAF   2016/05/31 21:03 TAF TAF EGUB 311920Z 3121/0101 35010KT 9999 -DZ OVC008 TEMPO 3121/0101 3000 DZ BKN005
 
Big Field view 1 icon   Big Field view 2 icon   Big Field view 3 icon   Chart AL3a in PDF icon   Chart AL3a in Word icon

WARNING:
This information is provided by the Airstrip unofficial weather station, DO NOT depend on the data provided here for any purpose.
This page is updated for latest Metars & TAF's every 5 minutes. Refresh the browser to check for the lastest.
Page designed for a minimum browser size of 1024x768.
© Copyright 2016 BigField Strip. This page auto generated 23:36 UTC - 31/05/2016   Contact Us
Valid HTML 4.01 Transitional     Windows uptime: 1 Days 21 Hours 4 Minutes 29 Seconds    WD started: 02:37 30/05/16    Free memory: 1494MB     Valid CSS!